Chicago O'Hare International Airport
KORD : now visible

Aeroporto :











RITROVATECI SU...

 
LOGIN :

Iscrizione | Disclaimer

   EN    FR    IT 

 









Sommario :    VFR   VFR Marginale   IFR   IFR Intensivo   IFR Molto Intensivo
Visibilità : 
Base nubi : 
>= 8 km
>= 3000ft
5 / 8 km
1000 / 3000 ft
1500m / 5 km
500 / 1000 ft
800 / 1500m
200 / 500 ft
< 800m
< 200 ft
Simboli :   Temporali  Nebbia  Neve Forte  Precipitazioni Forti  Vento > 20 kt






- Altitudine del aeroporto : 672 ft
- Codice IATA : ORD


KORD - Chicago O'Hare International

ULTIMO METAR :
  • 021151Z 25012G16KT 10SM FEW100 SCT250 21/15 A2991 RMK AO2 SLP124 T02060144 10211 20194 56004 $

METARs OBSOLETI :
  • 021051Z 24012KT 10SM FEW100 SCT250 20/14 A2991 RMK AO2 SLP126 T02000139 $
  • 020951Z 23011KT 10SM FEW040 BKN250 19/13 A2991 RMK AO2 SLP126 T01940128 $

TAF KORD
Valido dal 02 a 12 ore il 03 a 18 ore UTC


021120Z 0212/0318 23012KT P6SM SCT250 WS015/24045KT
FM021400 24015G25KT P6SM SCT250
FM030000 24012G20KT P6SM SCT250
FM030700 30012KT 6SM -SHRA BKN040
TEMPO 0307/0311 4SM TSRA BKN040CB
FM031400 30010KT P6SM BKN080
FIR KZAU / America del Nord



MetMap, La meteo Aeronautica in un colpo d'occhio ! - Copyright ORBIFLY Dicembre 2007 - Disclaimer

ORBIFLY MET'MAP TEAM :

Programmazione e sviluppo : Alexandra Zaïnal
Concezione : Baudouin d'Aumeries
Aiuto per la programmazione : Marc-Olivier Méhu
Supporto tecnico e logistico : Manuel Goepfert
Aiuto per la traduzione : Arnaldo La Scala

Contatto : metmap@orbifly.com




FONTI E CREDITI :

   NOAA       Earth
Advisory